Time;durP1;ratioP1;P1;durP2;ratioP2;P2;SDS_P1;SDS_P2;PMS_P1;PMS_P2;Temp;Humidity;BMP_temperature;BMP_pressure;BME280_temperature;BME280_humidity;BME280_pressure;Samples;Min_cycle;Max_cycle;Signal;HPM_P1;HPM_P2
2023/03/18 00:01:06;;;;;;;5.45;3.70;;;10.70;96.70;;;;;;5063542;28;20044;-71
2023/03/18 00:03:36;;;;;;;4.55;2.85;;;10.60;96.70;;;;;;5060828;28;20353;-71
2023/03/18 00:06:06;;;;;;;5.32;3.65;;;10.60;96.70;;;;;;5057831;28;20171;-71
2023/03/18 00:08:35;;;;;;;7.82;4.10;;;10.60;96.70;;;;;;5059766;28;20549;-71
2023/03/18 00:11:04;;;;;;;7.18;4.05;;;10.60;96.70;;;;;;5057754;28;20112;-71
2023/03/18 00:13:33;;;;;;;8.48;4.13;;;10.70;96.70;;;;;;5067968;28;20040;-71
2023/03/18 00:16:01;;;;;;;7.50;3.88;;;10.60;96.70;;;;;;5054725;28;20128;-71
2023/03/18 00:18:33;;;;;;;7.57;3.80;;;10.40;96.70;;;;;;5054025;28;20044;-71
2023/03/18 00:21:02;;;;;;;8.07;4.13;;;10.40;96.70;;;;;;5059242;28;20041;-71
2023/03/18 00:23:31;;;;;;;5.78;3.55;;;10.40;96.70;;;;;;5064601;28;20625;-71
2023/03/18 00:26:01;;;;;;;6.05;4.18;;;10.40;96.70;;;;;;5045845;28;20757;-71
2023/03/18 00:28:30;;;;;;;6.88;3.80;;;10.50;96.70;;;;;;5067191;28;20075;-71
2023/03/18 00:31:03;;;;;;;6.07;4.05;;;10.50;96.70;;;;;;5072293;28;20043;-71
2023/03/18 00:33:32;;;;;;;7.25;4.65;;;10.50;96.70;;;;;;5057540;28;20060;-71
2023/03/18 00:36:00;;;;;;;7.13;4.25;;;10.30;96.70;;;;;;5059729;28;20031;-71
2023/03/18 00:38:29;;;;;;;7.07;4.45;;;10.30;96.70;;;;;;5081388;28;20128;-71
2023/03/18 00:41:14;;;;;;;7.47;4.00;;;10.30;96.70;;;;;;5049785;28;20114;-71
2023/03/18 00:43:53;;;;;;;7.32;4.10;;;10.30;96.70;;;;;;5062482;28;20093;-70
2023/03/18 00:46:23;;;;;;;8.30;4.20;;;10.30;96.70;;;;;;5059271;28;20144;-70
2023/03/18 00:48:54;;;;;;;8.60;3.90;;;10.30;96.70;;;;;;5068750;28;20043;-71
2023/03/18 00:51:25;;;;;;;7.78;4.22;;;10.30;96.70;;;;;;5064241;28;20047;-70
2023/03/18 00:53:55;;;;;;;7.18;4.28;;;10.20;96.70;;;;;;5059789;28;20577;-70
2023/03/18 00:56:26;;;;;;;6.47;3.60;;;10.00;96.70;;;;;;5068494;28;20048;-70
2023/03/18 00:58:56;;;;;;;8.93;4.50;;;10.00;96.70;;;;;;5067095;28;20078;-70
2023/03/18 01:01:24;;;;;;;8.18;4.60;;;10.00;96.70;;;;;;5054707;28;20052;-70
2023/03/18 01:03:54;;;;;;;7.15;4.93;;;10.00;96.70;;;;;;5043068;28;20036;-71
2023/03/18 01:06:24;;;;;;;6.80;4.72;;;10.10;96.70;;;;;;5076257;28;20037;-71
2023/03/18 01:08:52;;;;;;;8.00;4.30;;;10.10;96.70;;;;;;5069826;28;20119;-70
2023/03/18 01:11:21;;;;;;;9.30;4.38;;;10.10;96.70;;;;;;5053852;28;20059;-71
2023/03/18 01:13:49;;;;;;;7.60;5.00;;;10.00;96.70;;;;;;5053358;28;20119;-71
2023/03/18 01:16:18;;;;;;;6.95;4.55;;;10.10;96.70;;;;;;5067627;28;20036;-70
2023/03/18 01:18:46;;;;;;;9.80;5.00;;;10.10;96.70;;;;;;5056814;28;20135;-71
2023/03/18 01:21:16;;;;;;;8.50;4.32;;;10.00;96.70;;;;;;5058633;28;20063;-71
2023/03/18 01:23:53;;;;;;;8.50;4.00;;;10.00;96.70;;;;;;5058625;28;20058;-71
2023/03/18 01:26:21;;;;;;;9.15;4.57;;;9.90;96.70;;;;;;5045489;28;20050;-71
2023/03/18 01:28:49;;;;;;;7.03;4.15;;;9.90;96.70;;;;;;5045229;28;20059;-71
2023/03/18 01:31:18;;;;;;;6.18;4.00;;;9.90;96.70;;;;;;5061634;28;20080;-70
2023/03/18 01:33:47;;;;;;;9.65;4.60;;;9.90;96.70;;;;;;5060025;28;20033;-70
2023/03/18 01:36:17;;;;;;;6.32;3.88;;;9.90;96.70;;;;;;5054962;28;20117;-70
2023/03/18 01:38:58;;;;;;;7.63;3.90;;;9.90;96.70;;;;;;5064651;28;20047;-70
2023/03/18 01:41:26;;;;;;;5.28;3.78;;;9.90;96.70;;;;;;5049785;28;20592;-70
2023/03/18 01:43:54;;;;;;;7.65;4.28;;;9.80;96.70;;;;;;5052636;28;20054;-70
2023/03/18 01:46:33;;;;;;;8.10;4.68;;;9.80;96.70;;;;;;5055407;28;20044;-71
2023/03/18 01:49:06;;;;;;;5.47;3.65;;;9.70;96.70;;;;;;5049974;28;20048;-70
2023/03/18 01:51:36;;;;;;;4.20;3.20;;;9.70;96.70;;;;;;5058566;28;20491;-70
2023/03/18 01:54:06;;;;;;;7.95;3.75;;;9.70;96.70;;;;;;5060901;28;20127;-70
2023/03/18 01:56:36;;;;;;;9.48;4.35;;;9.80;96.70;;;;;;5078817;28;20511;-71
2023/03/18 01:59:05;;;;;;;5.93;3.55;;;9.80;96.70;;;;;;5055662;28;20051;-70
2023/03/18 02:01:39;;;;;;;6.45;3.55;;;9.80;96.70;;;;;;5063774;28;20042;-70
2023/03/18 02:04:09;;;;;;;6.20;3.28;;;9.80;96.70;;;;;;5061658;28;20402;-70
2023/03/18 02:06:42;;;;;;;6.45;3.10;;;9.90;96.70;;;;;;5060199;28;20055;-70
2023/03/18 02:09:11;;;;;;;5.28;2.88;;;9.80;96.70;;;;;;5061870;28;20044;-70
2023/03/18 02:11:44;;;;;;;3.83;2.50;;;9.80;96.70;;;;;;5059407;28;20047;-70
2023/03/18 02:14:16;;;;;;;4.85;2.90;;;9.80;96.70;;;;;;5050527;28;20048;-70
2023/03/18 02:16:47;;;;;;;4.03;2.40;;;9.80;96.70;;;;;;5048774;28;20051;-70
2023/03/18 02:19:28;;;;;;;4.50;2.45;;;9.80;96.70;;;;;;5040842;28;20036;-70
2023/03/18 02:22:21;;;;;;;3.65;2.58;;;9.70;96.70;;;;;;5059272;28;20083;-71
2023/03/18 02:25:03;;;;;;;7.60;3.00;;;9.80;96.70;;;;;;5039218;28;20064;-70
2023/03/18 02:27:35;;;;;;;3.95;2.65;;;9.70;96.70;;;;;;5056321;28;20168;-71
2023/03/18 02:30:09;;;;;;;3.75;2.75;;;9.60;96.70;;;;;;5044780;28;20050;-70
2023/03/18 02:32:40;;;;;;;4.80;2.85;;;9.60;96.70;;;;;;5060004;28;20071;-70
2023/03/18 02:35:10;;;;;;;4.90;2.65;;;9.60;96.70;;;;;;5061294;28;20071;-70
2023/03/18 02:37:39;;;;;;;3.83;2.55;;;9.60;96.70;;;;;;5048929;28;20319;-70
2023/03/18 02:40:13;;;;;;;4.85;3.00;;;9.50;96.70;;;;;;5060639;28;20052;-70
2023/03/18 02:42:45;;;;;;;6.15;3.10;;;9.50;96.70;;;;;;5060777;28;20126;-70
2023/03/18 02:45:30;;;;;;;5.28;2.65;;;9.50;96.70;;;;;;5062963;28;20097;-70
2023/03/18 02:48:16;;;;;;;6.47;3.33;;;9.40;96.70;;;;;;5049972;28;20135;-70
2023/03/18 02:50:46;;;;;;;6.25;2.97;;;9.30;96.70;;;;;;5045537;28;20048;-70
2023/03/18 02:53:14;;;;;;;5.82;3.20;;;9.40;96.70;;;;;;5059840;28;20052;-70
2023/03/18 02:55:42;;;;;;;6.93;3.47;;;9.40;96.70;;;;;;5062845;28;20036;-71
2023/03/18 02:58:11;;;;;;;5.75;3.95;;;9.40;96.70;;;;;;5068480;28;20478;-71
2023/03/18 03:00:40;;;;;;;6.13;3.33;;;9.40;96.70;;;;;;5061320;28;20113;-70
2023/03/18 03:03:08;;;;;;;5.13;2.95;;;9.30;96.70;;;;;;5046300;28;20675;-70
2023/03/18 03:05:36;;;;;;;4.65;2.75;;;9.30;96.70;;;;;;5061357;28;20039;-70
2023/03/18 03:08:05;;;;;;;5.53;2.70;;;9.20;96.70;;;;;;5064003;28;20048;-71
2023/03/18 03:10:36;;;;;;;6.25;3.00;;;9.10;96.70;;;;;;5060695;28;20055;-70
2023/03/18 03:13:06;;;;;;;3.88;2.90;;;9.10;96.70;;;;;;5059195;28;20048;-70
2023/03/18 03:15:37;;;;;;;7.72;2.95;;;9.10;96.70;;;;;;5080432;28;20617;-71
2023/03/18 03:18:05;;;;;;;7.10;3.30;;;9.10;96.70;;;;;;5060618;28;20117;-70
2023/03/18 03:20:36;;;;;;;6.10;2.95;;;9.10;96.70;;;;;;5075216;28;20036;-71
2023/03/18 03:23:04;;;;;;;5.65;2.50;;;9.00;96.70;;;;;;5065226;28;20600;-70
2023/03/18 03:25:32;;;;;;;4.88;2.85;;;9.00;96.70;;;;;;5073589;28;20040;-70
2023/03/18 03:28:02;;;;;;;3.47;2.60;;;8.90;96.70;;;;;;5044709;28;20106;-70
2023/03/18 03:30:30;;;;;;;4.18;2.40;;;8.90;96.70;;;;;;5060407;28;20051;-71
2023/03/18 03:33:01;;;;;;;4.25;2.50;;;8.80;96.70;;;;;;5061162;28;20040;-70
2023/03/18 03:35:29;;;;;;;5.63;2.63;;;8.60;96.70;;;;;;5072873;28;20051;-70
2023/03/18 03:37:58;;;;;;;3.58;2.38;;;8.60;96.70;;;;;;5079166;28;20044;-70
2023/03/18 03:40:35;;;;;;;3.80;2.28;;;8.60;96.70;;;;;;5059704;28;20518;-70
2023/03/18 03:43:03;;;;;;;3.05;2.10;;;8.60;96.70;;;;;;5072905;28;20068;-71
2023/03/18 03:45:32;;;;;;;4.40;2.67;;;8.70;96.70;;;;;;5059922;28;20054;-70
2023/03/18 03:48:01;;;;;;;3.28;2.28;;;8.70;96.70;;;;;;5061164;28;20056;-71
2023/03/18 03:50:29;;;;;;;6.35;2.83;;;8.70;96.70;;;;;;5058041;28;20062;-70
2023/03/18 03:52:57;;;;;;;3.90;2.35;;;8.70;96.70;;;;;;5056054;28;20044;-70
2023/03/18 03:55:27;;;;;;;4.55;2.38;;;8.70;96.70;;;;;;5078192;28;20130;-70
2023/03/18 03:57:55;;;;;;;4.85;3.00;;;8.70;96.70;;;;;;5061366;28;20047;-70
2023/03/18 04:00:25;;;;;;;6.88;3.25;;;8.60;96.70;;;;;;5047643;28;20049;-70
2023/03/18 04:02:53;;;;;;;6.03;3.30;;;8.60;96.70;;;;;;5063659;28;20047;-70
2023/03/18 04:05:24;;;;;;;5.63;3.20;;;8.60;96.70;;;;;;5064494;28;20482;-70
2023/03/18 04:07:54;;;;;;;6.00;3.20;;;8.60;96.70;;;;;;5061579;28;20417;-70
2023/03/18 04:10:35;;;;;;;9.35;3.40;;;8.60;96.70;;;;;;5064286;28;20135;-71
2023/03/18 04:13:04;;;;;;;4.43;3.13;;;8.50;96.70;;;;;;5067339;28;20043;-71
2023/03/18 04:15:33;;;;;;;6.35;3.13;;;8.50;96.70;;;;;;5067360;28;20068;-71
2023/03/18 04:18:08;;;;;;;4.28;2.50;;;8.50;96.70;;;;;;5064008;28;20037;-71
2023/03/18 04:20:39;;;;;;;6.53;3.20;;;8.60;96.70;;;;;;5086961;28;20532;-72
2023/03/18 04:23:16;;;;;;;3.60;2.72;;;8.50;96.70;;;;;;5053606;28;20047;-72
2023/03/18 04:25:45;;;;;;;4.78;2.70;;;8.50;96.70;;;;;;5043211;28;20059;-73
2023/03/18 04:28:15;;;;;;;4.70;2.63;;;8.50;96.70;;;;;;5042823;28;20050;-72
2023/03/18 04:30:43;;;;;;;4.35;2.72;;;8.50;96.70;;;;;;5061764;28;20048;-71
2023/03/18 04:33:15;;;;;;;3.58;2.63;;;8.50;96.70;;;;;;5066575;28;20044;-71
2023/03/18 04:35:44;;;;;;;6.32;3.35;;;8.60;96.70;;;;;;5058971;28;20559;-72
2023/03/18 04:38:14;;;;;;;3.97;3.03;;;8.60;96.70;;;;;;5063205;28;20052;-71
2023/03/18 04:40:44;;;;;;;7.13;2.75;;;8.50;96.70;;;;;;5063529;28;20133;-71
2023/03/18 04:43:12;;;;;;;4.05;3.03;;;8.50;96.70;;;;;;5075993;28;20462;-72
2023/03/18 04:45:40;;;;;;;6.18;3.00;;;8.30;96.70;;;;;;5074710;28;20577;-72
2023/03/18 04:48:09;;;;;;;4.97;3.17;;;8.20;96.70;;;;;;5063614;28;20132;-71
2023/03/18 04:50:40;;;;;;;4.43;2.40;;;8.20;96.70;;;;;;5046905;28;20122;-72
2023/03/18 04:53:15;;;;;;;7.00;2.72;;;8.10;96.70;;;;;;5067513;28;20051;-71
2023/03/18 04:55:44;;;;;;;4.53;2.88;;;8.20;96.70;;;;;;5053697;28;20048;-72
2023/03/18 04:58:14;;;;;;;3.92;2.83;;;8.30;96.70;;;;;;5060944;28;20040;-72
2023/03/18 05:00:50;;;;;;;3.50;2.60;;;8.30;96.70;;;;;;5062777;28;20044;-71
2023/03/18 05:03:24;;;;;;;6.10;3.03;;;8.30;96.70;;;;;;5059420;28;21226;-71
2023/03/18 05:05:53;;;;;;;6.15;2.92;;;8.30;96.70;;;;;;5060279;28;20081;-73
2023/03/18 05:08:29;;;;;;;6.60;2.92;;;8.30;96.70;;;;;;5054459;28;20768;-72
2023/03/18 05:11:00;;;;;;;9.90;2.80;;;8.30;96.70;;;;;;5046791;28;20048;-72
2023/03/18 05:13:28;;;;;;;7.68;3.45;;;8.30;96.70;;;;;;5045554;28;20139;-73
2023/03/18 05:15:58;;;;;;;10.07;3.22;;;8.30;96.70;;;;;;5076026;28;20060;-72
2023/03/18 05:18:26;;;;;;;7.13;3.30;;;8.40;96.70;;;;;;5061461;28;20052;-71
2023/03/18 05:20:57;;;;;;;8.60;2.90;;;8.40;96.70;;;;;;5063122;28;20410;-72
2023/03/18 05:23:25;;;;;;;11.82;3.08;;;8.40;96.70;;;;;;5060700;28;20044;-72
2023/03/18 05:25:57;;;;;;;12.88;3.10;;;8.30;96.70;;;;;;5063617;28;20056;-71
2023/03/18 05:28:27;;;;;;;6.90;3.53;;;8.30;96.70;;;;;;5059411;28;20071;-71
2023/03/18 05:31:11;;;;;;;5.80;3.28;;;8.30;96.70;;;;;;5062772;28;20298;-72
2023/03/18 05:33:41;;;;;;;5.55;3.13;;;8.30;96.70;;;;;;5062285;28;20047;-72
2023/03/18 05:36:12;;;;;;;4.35;3.05;;;8.40;96.70;;;;;;5060687;28;20048;-72
2023/03/18 05:38:54;;;;;;;6.53;2.80;;;8.50;96.70;;;;;;5064430;28;20052;-70
2023/03/18 05:41:25;;;;;;;6.13;2.90;;;8.40;96.70;;;;;;5049145;28;20067;-71
2023/03/18 05:43:53;;;;;;;4.72;3.08;;;8.30;96.70;;;;;;5062657;28;20040;-71
2023/03/18 05:46:22;;;;;;;5.90;3.08;;;8.40;96.70;;;;;;5041120;28;20067;-72
2023/03/18 05:49:12;;;;;;;5.90;3.03;;;8.30;96.70;;;;;;5058928;28;20067;-72
2023/03/18 05:51:49;;;;;;;5.70;3.40;;;8.30;96.70;;;;;;5042382;28;20040;-71
2023/03/18 05:54:31;;;;;;;6.07;3.28;;;8.20;96.70;;;;;;5058051;28;20111;-72
2023/03/18 05:57:01;;;;;;;4.60;3.50;;;8.40;96.70;;;;;;5059732;28;20629;-71
2023/03/18 05:59:30;;;;;;;7.57;4.50;;;8.40;96.70;;;;;;5057931;28;20051;-71
2023/03/18 06:02:02;;;;;;;9.10;4.43;;;8.40;96.70;;;;;;5062286;28;20051;-71
2023/03/18 06:04:30;;;;;;;6.55;4.00;;;8.30;96.70;;;;;;5053801;28;20052;-71
2023/03/18 06:06:58;;;;;;;6.80;3.63;;;8.30;96.70;;;;;;5078113;28;20455;-71
2023/03/18 06:09:26;;;;;;;5.80;3.70;;;8.40;96.70;;;;;;5049612;28;20048;-72
2023/03/18 06:11:54;;;;;;;6.05;3.55;;;8.50;96.70;;;;;;5078872;28;20857;-71
2023/03/18 06:14:28;;;;;;;6.85;3.75;;;8.50;96.70;;;;;;5061372;28;20055;-71
2023/03/18 06:16:59;;;;;;;5.28;3.50;;;8.50;96.70;;;;;;5067415;28;20172;-71
2023/03/18 06:19:29;;;;;;;7.55;3.83;;;8.50;96.70;;;;;;5055577;28;20047;-71
2023/03/18 06:21:57;;;;;;;6.60;3.60;;;8.60;96.70;;;;;;5061640;28;20051;-72
2023/03/18 06:24:25;;;;;;;8.10;3.95;;;8.60;96.70;;;;;;5076536;28;20061;-71
2023/03/18 06:26:56;;;;;;;7.82;4.07;;;8.70;96.70;;;;;;5056164;28;20136;-71
2023/03/18 06:29:26;;;;;;;6.15;3.85;;;8.70;96.70;;;;;;5059944;28;20055;-71
2023/03/18 06:31:58;;;;;;;6.32;3.97;;;8.80;96.70;;;;;;5057950;28;20064;-71
2023/03/18 06:34:26;;;;;;;7.78;4.53;;;8.90;96.70;;;;;;5058290;28;20123;-72
2023/03/18 06:36:55;;;;;;;7.68;4.50;;;9.00;96.70;;;;;;5047504;28;20036;-71
2023/03/18 06:39:25;;;;;;;7.03;3.65;;;9.00;96.70;;;;;;5057065;28;20071;-72
2023/03/18 06:41:53;;;;;;;6.15;4.45;;;9.00;96.70;;;;;;5055545;28;20044;-71
2023/03/18 06:44:49;;;;;;;6.75;4.13;;;9.00;96.70;;;;;;5072354;28;20048;-72
2023/03/18 06:47:26;;;;;;;8.25;4.05;;;9.00;96.70;;;;;;5048158;28;20195;-71
2023/03/18 06:49:56;;;;;;;9.25;4.40;;;9.10;96.70;;;;;;5057064;28;20063;-71
2023/03/18 06:52:30;;;;;;;7.00;4.30;;;9.20;96.70;;;;;;5063599;28;20108;-72
2023/03/18 06:55:05;;;;;;;8.27;4.00;;;9.30;96.70;;;;;;5074068;28;20048;-71
2023/03/18 06:57:37;;;;;;;6.82;4.68;;;9.30;96.70;;;;;;5063444;28;20049;-71
2023/03/18 07:00:10;;;;;;;8.95;4.53;;;9.20;96.70;;;;;;5044800;28;20048;-71
2023/03/18 07:02:40;;;;;;;5.63;3.85;;;9.30;96.70;;;;;;5067704;28;20416;-72
2023/03/18 07:05:11;;;;;;;5.05;3.83;;;9.40;96.70;;;;;;5064236;28;20047;-71
2023/03/18 07:07:41;;;;;;;12.23;3.83;;;9.40;96.70;;;;;;5048933;28;20069;-72
2023/03/18 07:10:15;;;;;;;5.75;4.22;;;9.40;96.70;;;;;;5082408;28;20048;-72
2023/03/18 07:12:43;;;;;;;8.25;4.47;;;9.50;96.70;;;;;;5073377;28;20043;-71
2023/03/18 07:15:13;;;;;;;5.80;3.58;;;9.50;96.70;;;;;;5050207;28;20486;-73
2023/03/18 07:17:41;;;;;;;7.50;4.38;;;9.60;96.70;;;;;;5081993;28;20040;-71
2023/03/18 07:20:12;;;;;;;6.40;4.40;;;9.70;96.70;;;;;;5072763;28;20044;-72
2023/03/18 07:22:41;;;;;;;6.72;4.43;;;9.80;96.70;;;;;;5085491;28;20043;-72
2023/03/18 07:25:10;;;;;;;6.40;4.60;;;9.90;96.70;;;;;;5085934;28;20048;-73
2023/03/18 07:27:38;;;;;;;7.70;4.63;;;10.00;96.70;;;;;;5064080;28;20128;-72
2023/03/18 07:30:10;;;;;;;6.88;4.40;;;10.00;96.70;;;;;;5058490;28;20051;-73
2023/03/18 07:32:40;;;;;;;6.53;4.35;;;10.10;96.70;;;;;;5069339;28;20549;-72
2023/03/18 07:35:10;;;;;;;5.75;4.10;;;10.10;96.70;;;;;;5060241;28;20059;-72
2023/03/18 07:37:42;;;;;;;5.82;4.32;;;10.20;96.70;;;;;;5079531;28;20145;-72
2023/03/18 07:40:11;;;;;;;7.65;4.50;;;10.30;96.70;;;;;;5082046;28;20044;-71
2023/03/18 07:42:39;;;;;;;9.63;4.70;;;10.30;96.70;;;;;;5067351;28;20093;-72
2023/03/18 07:45:09;;;;;;;8.77;5.35;;;10.40;96.70;;;;;;5101568;28;20124;-71
2023/03/18 07:47:37;;;;;;;13.02;8.25;;;10.40;96.70;;;;;;5075852;28;20070;-72
2023/03/18 07:50:08;;;;;;;11.38;7.63;;;10.60;96.70;;;;;;5100938;28;20040;-73
2023/03/18 07:52:36;;;;;;;12.32;8.05;;;10.70;96.70;;;;;;5085270;28;20051;-73
2023/03/18 07:55:05;;;;;;;9.45;5.75;;;10.70;96.70;;;;;;5075761;28;20097;-72
2023/03/18 07:57:32;;;;;;;7.25;4.90;;;10.90;96.70;;;;;;5085131;28;20044;-71
2023/03/18 08:00:00;;;;;;;7.78;5.47;;;11.00;96.70;;;;;;5049369;28;20040;-71
2023/03/18 08:02:39;;;;;;;8.35;4.55;;;11.00;96.70;;;;;;5077410;28;20529;-71
2023/03/18 08:05:10;;;;;;;6.65;4.32;;;11.10;96.70;;;;;;5089703;28;20066;-71
2023/03/18 08:07:38;;;;;;;8.38;5.30;;;11.20;96.70;;;;;;5068900;28;20140;-71
2023/03/18 08:10:07;;;;;;;8.02;4.22;;;11.30;96.70;;;;;;5065995;28;20537;-71
2023/03/18 08:12:36;;;;;;;8.25;4.43;;;11.40;96.70;;;;;;5060873;28;20071;-71
2023/03/18 08:15:19;;;;;;;7.50;4.45;;;11.60;96.70;;;;;;5073254;28;20490;-71
2023/03/18 08:17:47;;;;;;;7.22;4.93;;;11.70;96.70;;;;;;5065734;28;20087;-71
2023/03/18 08:20:19;;;;;;;6.78;4.65;;;11.80;96.70;;;;;;5084067;28;20497;-71
2023/03/18 08:22:47;;;;;;;7.95;3.97;;;11.90;96.70;;;;;;5074188;28;20043;-71
2023/03/18 08:25:16;;;;;;;5.45;4.22;;;12.00;96.70;;;;;;5075805;28;20678;-71
2023/03/18 08:27:43;;;;;;;6.10;3.85;;;12.10;96.70;;;;;;5079163;28;20043;-70
2023/03/18 08:30:13;;;;;;;6.35;3.97;;;12.20;96.70;;;;;;5079221;28;20032;-72
2023/03/18 08:32:42;;;;;;;6.78;4.43;;;12.30;96.70;;;;;;5056589;28;20422;-71
2023/03/18 08:35:10;;;;;;;6.68;4.20;;;12.40;96.70;;;;;;5083654;28;20062;-72
2023/03/18 08:37:40;;;;;;;7.07;4.43;;;12.50;96.70;;;;;;5073880;28;20490;-72
2023/03/18 08:40:10;;;;;;;6.95;3.85;;;12.70;96.70;;;;;;5074406;28;20044;-73
2023/03/18 08:42:38;;;;;;;18.70;12.82;;;12.70;96.70;;;;;;5089582;28;20553;-72
2023/03/18 08:45:08;;;;;;;24.83;18.50;;;12.80;96.70;;;;;;5081268;28;20037;-72
2023/03/18 08:47:36;;;;;;;8.75;5.40;;;12.90;96.70;;;;;;5084085;28;20051;-72
2023/03/18 08:50:05;;;;;;;10.55;5.00;;;13.00;96.70;;;;;;5056755;28;20452;-73
2023/03/18 08:52:33;;;;;;;7.82;4.60;;;13.10;96.70;;;;;;5062517;28;20210;-72
2023/03/18 08:55:03;;;;;;;9.98;4.35;;;13.20;96.70;;;;;;5077177;28;20040;-72
2023/03/18 08:57:31;;;;;;;9.23;4.38;;;13.30;96.70;;;;;;5058681;28;20040;-72
2023/03/18 08:59:59;;;;;;;7.97;4.45;;;13.30;96.70;;;;;;5074716;28;20060;-73
2023/03/18 09:02:27;;;;;;;9.63;4.47;;;13.30;96.70;;;;;;5088968;28;20044;-76
2023/03/18 09:04:55;;;;;;;9.10;5.00;;;13.30;96.70;;;;;;5068264;28;20051;-75
2023/03/18 09:07:23;;;;;;;6.70;4.28;;;13.40;96.70;;;;;;5062834;28;20044;-73
2023/03/18 09:09:52;;;;;;;9.90;4.45;;;13.50;96.70;;;;;;5056619;28;20498;-72
2023/03/18 09:12:23;;;;;;;6.18;4.00;;;13.50;96.70;;;;;;5058792;28;20131;-73
2023/03/18 09:14:51;;;;;;;9.48;4.10;;;13.50;96.70;;;;;;5077061;28;20040;-71
2023/03/18 09:17:19;;;;;;;7.43;4.40;;;13.60;96.70;;;;;;5077334;28;20035;-73
2023/03/18 09:19:51;;;;;;;8.52;4.25;;;13.60;96.70;;;;;;5076461;28;20031;-72
2023/03/18 09:22:20;;;;;;;6.20;4.05;;;13.70;96.70;;;;;;5076522;28;20036;-72
2023/03/18 09:24:48;;;;;;;8.07;3.65;;;13.70;96.70;;;;;;5061220;28;20080;-72
2023/03/18 09:27:16;;;;;;;8.15;3.55;;;13.80;96.70;;;;;;5047678;28;20063;-72
2023/03/18 09:29:46;;;;;;;7.47;3.63;;;13.90;96.70;;;;;;5056504;28;20077;-72
2023/03/18 09:32:15;;;;;;;6.05;3.28;;;14.00;96.70;;;;;;5060813;28;20469;-73
2023/03/18 09:34:43;;;;;;;4.72;2.83;;;14.20;96.70;;;;;;5059333;28;20055;-72
2023/03/18 09:37:15;;;;;;;6.35;3.22;;;14.30;96.70;;;;;;5060156;28;20066;-73
2023/03/18 09:39:43;;;;;;;5.07;3.00;;;14.20;96.70;;;;;;5075970;28;20128;-73
2023/03/18 09:42:22;;;;;;;5.97;3.03;;;14.10;96.70;;;;;;5077694;28;20043;-73
2023/03/18 09:44:56;;;;;;;4.50;2.70;;;14.00;96.70;;;;;;5055341;28;20744;-72
2023/03/18 09:47:47;;;;;;;5.82;2.78;;;14.00;96.70;;;;;;5054026;28;20060;-73
2023/03/18 09:50:27;;;;;;;13.18;8.43;;;14.10;96.70;;;;;;5082983;28;20040;-73
2023/03/18 09:53:12;;;;;;;5.50;2.70;;;14.20;96.70;;;;;;5076102;28;20494;-74
2023/03/18 09:55:45;;;;;;;4.90;1.83;;;14.30;96.70;;;;;;5040345;28;20052;-73
2023/03/18 09:58:23;;;;;;;3.67;1.85;;;14.30;96.70;;;;;;5076518;28;20043;-74
2023/03/18 10:00:58;;;;;;;4.53;2.22;;;14.40;96.70;;;;;;5053595;28;20064;-73
2023/03/18 10:03:34;;;;;;;4.90;2.08;;;14.40;96.70;;;;;;5077115;28;20044;-73
2023/03/18 10:06:06;;;;;;;5.60;2.15;;;14.50;96.70;;;;;;5051609;28;20048;-74
2023/03/18 10:08:51;;;;;;;4.22;2.45;;;14.60;96.70;;;;;;5076589;28;20545;-74
2023/03/18 10:11:28;;;;;;;3.63;1.70;;;14.70;96.70;;;;;;5074614;28;20040;-74
2023/03/18 10:14:23;;;;;;;3.72;1.90;;;14.70;96.70;;;;;;5039552;28;20498;-73
2023/03/18 10:17:04;;;;;;;2.10;1.35;;;14.70;96.70;;;;;;5049123;28;20490;-74
2023/03/18 10:19:34;;;;;;;6.32;2.05;;;14.70;96.70;;;;;;5075912;28;20468;-74
2023/03/18 10:22:29;;;;;;;4.40;1.77;;;15.00;96.70;;;;;;5065541;28;20083;-75
2023/03/18 10:25:11;;;;;;;5.03;2.03;;;15.40;96.70;;;;;;5058657;28;20575;-74
2023/03/18 10:27:58;;;;;;;3.47;1.65;;;15.70;96.70;;;;;;5059221;28;20414;-73
2023/03/18 10:30:47;;;;;;;3.45;1.77;;;15.50;96.70;;;;;;5073199;28;20150;-74
2023/03/18 10:33:33;;;;;;;3.22;1.75;;;15.40;96.70;;;;;;5045275;28;20055;-73
2023/03/18 10:36:22;;;;;;;5.15;1.55;;;15.70;96.70;;;;;;5075848;28;20039;-73
2023/03/18 10:38:55;;;;;;;4.55;1.77;;;15.80;96.70;;;;;;5040451;28;20147;-75
2023/03/18 10:41:28;;;;;;;3.40;1.55;;;15.60;96.70;;;;;;5053737;28;20039;-75
2023/03/18 10:43:57;;;;;;;3.65;1.83;;;15.50;96.70;;;;;;5077042;28;20551;-74
2023/03/18 10:46:25;;;;;;;3.75;1.88;;;15.60;96.70;;;;;;5078287;28;20559;-73
2023/03/18 10:48:59;;;;;;;4.53;1.60;;;15.60;96.70;;;;;;5049883;28;20670;-74
2023/03/18 10:51:33;;;;;;;3.45;2.15;;;15.60;96.70;;;;;;5057918;28;20055;-73
2023/03/18 10:54:08;;;;;;;4.10;1.92;;;15.50;96.70;;;;;;5070115;28;20044;-73
2023/03/18 10:56:36;;;;;;;4.47;1.80;;;15.40;96.70;;;;;;5059386;28;20041;-74
2023/03/18 10:59:11;;;;;;;6.35;1.58;;;15.70;96.70;;;;;;5076280;28;20379;-73
2023/03/18 11:01:40;;;;;;;3.88;1.50;;;16.10;96.70;;;;;;5072043;28;20058;-76
2023/03/18 11:04:13;;;;;;;5.18;1.70;;;16.20;96.70;;;;;;5061379;28;20462;-75
2023/03/18 11:06:46;;;;;;;2.97;1.52;;;16.30;96.70;;;;;;5052072;28;20047;-74
2023/03/18 11:09:17;;;;;;;3.55;1.45;;;16.20;96.70;;;;;;5054791;28;20095;-75
2023/03/18 11:11:47;;;;;;;2.90;1.58;;;16.10;96.70;;;;;;5075278;28;20046;-74
2023/03/18 11:14:19;;;;;;;4.13;1.95;;;16.00;96.70;;;;;;5049478;28;20422;-73
2023/03/18 11:16:55;;;;;;;3.58;1.33;;;16.20;96.70;;;;;;5060758;28;20040;-72
2023/03/18 11:19:33;;;;;;;1.55;0.90;;;16.20;96.70;;;;;;5058529;28;20048;-72
2023/03/18 11:22:21;;;;;;;5.15;1.40;;;16.00;96.70;;;;;;5055235;28;20040;-73
2023/03/18 11:25:04;;;;;;;4.38;1.20;;;15.90;96.70;;;;;;5075538;28;20055;-74
2023/03/18 11:27:39;;;;;;;3.63;1.48;;;15.90;96.70;;;;;;5076062;28;20051;-75
2023/03/18 11:30:15;;;;;;;17.08;12.90;;;16.10;96.70;;;;;;5059514;28;20043;-73
2023/03/18 11:33:02;;;;;;;4.25;2.55;;;16.20;96.70;;;;;;5049388;28;20506;-74
2023/03/18 11:35:38;;;;;;;7.30;4.00;;;16.40;96.70;;;;;;5051443;28;20047;-74
2023/03/18 11:38:13;;;;;;;;;;;16.70;96.70;;;;;;5062296;28;20040;-74
2023/03/18 11:40:41;;;;;;;4.28;1.83;;;17.00;96.70;;;;;;5054222;28;19931;-73
2023/03/18 11:43:17;;;;;;;4.70;1.70;;;17.10;96.70;;;;;;5079379;28;20037;-74
2023/03/18 11:45:56;;;;;;;4.32;2.00;;;17.40;96.70;;;;;;5050524;28;20071;-74
2023/03/18 11:48:35;;;;;;;2.95;1.70;;;17.50;96.70;;;;;;5055318;28;20677;-74
2023/03/18 11:51:35;;;;;;;3.83;1.30;;;17.70;96.70;;;;;;5061472;28;20155;-73
2023/03/18 11:54:21;;;;;;;5.93;4.50;;;17.90;96.70;;;;;;5049683;28;20768;-73
2023/03/18 11:56:56;;;;;;;13.70;5.82;;;18.20;96.70;;;;;;5084824;28;20151;-73
2023/03/18 11:59:35;;;;;;;4.00;1.98;;;18.40;96.70;;;;;;5100007;28;20046;-72
2023/03/18 12:02:26;;;;;;;3.15;1.48;;;18.40;96.70;;;;;;5076094;28;20043;-73
2023/03/18 12:05:20;;;;;;;4.30;1.33;;;18.60;96.70;;;;;;5082547;28;20079;-73
2023/03/18 12:08:02;;;;;;;4.03;1.38;;;18.80;96.70;;;;;;5091149;28;20058;-72
2023/03/18 12:10:35;;;;;;;2.95;1.25;;;18.90;96.70;;;;;;5069021;28;20047;-73
2023/03/18 12:13:28;;;;;;;2.53;1.17;;;18.70;96.70;;;;;;5066522;28;20048;-73
2023/03/18 12:16:07;;;;;;;6.20;1.55;;;18.70;96.70;;;;;;5057923;28;20044;-73
2023/03/18 12:19:01;;;;;;;2.22;1.40;;;18.80;96.70;;;;;;5054095;28;20044;-73
2023/03/18 12:21:50;;;;;;;7.50;1.30;;;18.90;96.70;;;;;;5057429;28;20055;-72
2023/03/18 12:24:44;;;;;;;5.93;1.45;;;18.90;96.70;;;;;;5092619;28;20135;-75
2023/03/18 12:27:22;;;;;;;5.35;1.48;;;19.00;96.70;;;;;;5068748;28;20432;-73
2023/03/18 12:30:23;;;;;;;3.47;1.42;;;19.10;96.70;;;;;;5094969;28;20064;-76
2023/03/18 12:33:03;;;;;;;3.50;1.73;;;18.80;96.70;;;;;;5079867;28;20097;-73
2023/03/18 12:35:52;;;;;;;3.15;1.40;;;18.70;96.70;;;;;;5084151;28;20048;-74
2023/03/18 12:38:53;;;;;;;2.80;1.15;;;18.80;96.70;;;;;;5063548;28;20051;-73
2023/03/18 12:41:35;;;;;;;3.83;1.23;;;18.70;96.70;;;;;;5095354;28;20046;-72
2023/03/18 12:44:20;;;;;;;23.33;2.88;;;18.40;96.70;;;;;;5073832;28;20405;-72
2023/03/18 12:46:58;;;;;;;4.90;1.30;;;18.30;96.70;;;;;;5081889;28;20079;-73
2023/03/18 12:49:33;;;;;;;3.38;1.38;;;18.80;96.70;;;;;;5077826;28;20134;-73
2023/03/18 12:52:06;;;;;;;4.47;1.80;;;18.80;96.70;;;;;;5059912;28;20044;-72
2023/03/18 12:54:40;;;;;;;2.67;1.35;;;18.50;96.70;;;;;;5054670;28;20057;-73
2023/03/18 12:57:19;;;;;;;3.40;1.58;;;18.90;96.70;;;;;;5064504;28;20068;-73
2023/03/18 12:59:51;;;;;;;3.13;1.15;;;19.00;96.70;;;;;;5077665;28;20151;-73
2023/03/18 13:02:42;;;;;;;5.53;1.30;;;19.00;96.70;;;;;;5063222;28;20044;-73
2023/03/18 13:05:23;;;;;;;3.83;1.42;;;19.10;96.70;;;;;;5067839;28;20067;-72
2023/03/18 13:08:10;;;;;;;2.53;1.00;;;19.30;96.70;;;;;;5074874;28;20088;-73
2023/03/18 13:10:40;;;;;;;3.30;1.33;;;19.50;96.70;;;;;;5080065;28;20052;-73
2023/03/18 13:13:12;;;;;;;2.17;1.30;;;19.20;96.70;;;;;;5078947;28;20498;-72
2023/03/18 13:15:43;;;;;;;2.83;1.10;;;19.00;96.70;;;;;;5062357;28;20463;-73
2023/03/18 13:18:17;;;;;;;4.55;1.33;;;18.80;96.70;;;;;;5066695;28;20070;-72
2023/03/18 13:20:46;;;;;;;5.57;1.60;;;18.70;96.70;;;;;;5088134;28;20592;-73